Terminal Aerodrome Forecast
Issued by NWS Sterling, VA

Current Version | Previous Version | Graphics & Text | Print | Product List | Glossary On
Versions: 1 2 3 4 5 6 7 8 9 10 11 12 13 14 15 16 17 18 19 20 21 22 23 24
000
FTUS41 KLWX 271126
TAFDCA
TAF
KDCA 271126Z 2712/2812 36004KT P6SM BKN050
     FM272000 11004KT P6SM VCTS BKN050CB
     FM280000 VRB03KT P6SM SCT060 BKN100=

USA.gov is the U.S. government's official web portal to all federal, state and local government web resources and services.